Meishomaru — JD3044 — position and weather

sailwx.info

Track history (hours):
 
Tides and Currents Weather Stations Pressure Air Temp Water Temp Dewpoint Dewpoint Depression Visibility Wind Speed Wind Dir Waves Ship Positions

Meishomaru

Last reported at 2017-Nov-18 05:13 UTC. Time now 2017-Nov-21 01:12 UTC.
Position N 34°57' E 139°44'.

Length 68 m; draft 3.9 m.

Type: Tanker. MMSI: 431001216.

Date/timePositionNaut miles runAvg speedWind from/ knotsBaromVisibWave heightAir tempDewpointWater temp
2017-Nov-18 05:13N 34°57' E 139°44'210.0
2017-Nov-18 05:00N 34°59' E 139°43'612.1
2017-Nov-18 04:30N 35°05' E 139°45'612.0
2017-Nov-18 04:00N 35°11' E 139°46'611.1
2017-Nov-18 03:30N 35°16' E 139°46'611.8
2017-Nov-18 03:00N 35°21' E 139°42'510.6
2017-Nov-18 02:30N 35°26' E 139°45'4 8.3
2017-Nov-18 01:59N 35°30' E 139°46'1 0.4
2017-Nov-17 22:45N 35°31' E 139°45'0 0.6
2017-Nov-17 22:30N 35°31' E 139°45'3 6.3
2017-Nov-17 22:00N 35°30' E 139°48'1 0.9
2017-Nov-17 21:15N 35°29' E 139°49'0 0.0
2017-Nov-17 21:00N 35°29' E 139°49'0 0.1
2017-Nov-17 20:18N 35°29' E 139°49'0 0.0
2017-Nov-17 20:00N 35°29' E 139°49'0 0.0
2017-Nov-17 19:30N 35°29' E 139°49'0 0.0
2017-Nov-17 19:00N 35°29' E 139°49'0 0.0
2017-Nov-17 18:30N 35°29' E 139°49'0 0.0
2017-Nov-17 18:00N 35°29' E 139°49'0 0.0
2017-Nov-17 17:27N 35°29' E 139°49'0 0.0
2017-Nov-17 17:00N 35°29' E 139°49'0 0.0
2017-Nov-17 16:30N 35°29' E 139°49'4 7.7
2017-Nov-17 16:00N 35°26' E 139°47'612.5
2017-Nov-17 15:30N 35°20' E 139°44'611.6
2017-Nov-17 15:00N 35°15' E 139°47'611.6
2017-Nov-17 14:30N 35°09' E 139°46'611.4
2017-Nov-17 14:00N 35°04' E 139°43'611.9
2017-Nov-17 13:30N 34°60' E 139°37'23510.5
2017-Nov-16 15:02N 34°08' E 134°59'112.9
2017-Nov-16 14:59N 34°08' E 134°59'814.0
2017-Nov-16 14:25N 34°16' E 134°58'1312.3
2017-Nov-16 13:23N 34°26' E 135°08'512.5
2017-Nov-16 13:00N 34°29' E 135°13'612.4
2017-Nov-16 12:30N 34°32' E 135°19'4 8.4
2017-Nov-16 11:58N 34°32' E 135°25'0 0.0
2017-Nov-16 05:49N 34°32' E 135°25'1 3.0
2017-Nov-16 05:28N 34°32' E 135°24'612.3
2017-Nov-16 05:00N 34°33' E 135°17'612.9
2017-Nov-16 04:30N 34°34' E 135°09'714.7
2017-Nov-16 04:00N 34°37' E 135°01'  
2017-Nov-09 08:44N 34°37' E 135°01'2 8.7
2017-Nov-09 08:29N 34°36' E 135°04'4 9.3
2017-Nov-09 08:00N 34°32' E 135°04'1611.1
2017-Nov-09 06:34N 34°16' E 134°60'211.5
2017-Nov-09 06:25N 34°15' E 135°00'511.4
2017-Nov-09 06:00N 34°10' E 135°01'  
Track history (hours):
 
Tides and Currents Weather Stations Pressure Air Temp Water Temp Dewpoint Dewpoint Depression Visibility Wind Speed Wind Dir Waves Ship Positions

Meishomaru

Last reported at 2017-Nov-18 05:13 UTC. Time now 2017-Nov-21 01:12 UTC.
Position N 34°57' E 139°44'.

Length 68 m; draft 3.9 m.

Type: Tanker. MMSI: 431001216.

Date/timePositionNaut miles runAvg speedWind from/ knotsBaromVisibWave heightAir tempDewpointWater temp
2017-Nov-18 05:13N 34°57' E 139°44'210.0
2017-Nov-18 05:00N 34°59' E 139°43'612.1
2017-Nov-18 04:30N 35°05' E 139°45'612.0
2017-Nov-18 04:00N 35°11' E 139°46'611.1
2017-Nov-18 03:30N 35°16' E 139°46'611.8
2017-Nov-18 03:00N 35°21' E 139°42'510.6
2017-Nov-18 02:30N 35°26' E 139°45'4 8.3
2017-Nov-18 01:59N 35°30' E 139°46'1 0.4
2017-Nov-17 22:45N 35°31' E 139°45'0 0.6
2017-Nov-17 22:30N 35°31' E 139°45'3 6.3
2017-Nov-17 22:00N 35°30' E 139°48'1 0.9
2017-Nov-17 21:15N 35°29' E 139°49'0 0.0
2017-Nov-17 21:00N 35°29' E 139°49'0 0.1
2017-Nov-17 20:18N 35°29' E 139°49'0 0.0
2017-Nov-17 20:00N 35°29' E 139°49'0 0.0
2017-Nov-17 19:30N 35°29' E 139°49'0 0.0
2017-Nov-17 19:00N 35°29' E 139°49'0 0.0
2017-Nov-17 18:30N 35°29' E 139°49'0 0.0
2017-Nov-17 18:00N 35°29' E 139°49'0 0.0
2017-Nov-17 17:27N 35°29' E 139°49'0 0.0
2017-Nov-17 17:00N 35°29' E 139°49'0 0.0
2017-Nov-17 16:30N 35°29' E 139°49'4 7.7
2017-Nov-17 16:00N 35°26' E 139°47'612.5
2017-Nov-17 15:30N 35°20' E 139°44'611.6
2017-Nov-17 15:00N 35°15' E 139°47'611.6
2017-Nov-17 14:30N 35°09' E 139°46'611.4
2017-Nov-17 14:00N 35°04' E 139°43'611.9
2017-Nov-17 13:30N 34°60' E 139°37'23510.5
2017-Nov-16 15:02N 34°08' E 134°59'112.9
2017-Nov-16 14:59N 34°08' E 134°59'814.0
2017-Nov-16 14:25N 34°16' E 134°58'1312.3
2017-Nov-16 13:23N 34°26' E 135°08'512.5
2017-Nov-16 13:00N 34°29' E 135°13'612.4
2017-Nov-16 12:30N 34°32' E 135°19'4 8.4
2017-Nov-16 11:58N 34°32' E 135°25'0 0.0
2017-Nov-16 05:49N 34°32' E 135°25'1 3.0
2017-Nov-16 05:28N 34°32' E 135°24'612.3
2017-Nov-16 05:00N 34°33' E 135°17'612.9
2017-Nov-16 04:30N 34°34' E 135°09'714.7
2017-Nov-16 04:00N 34°37' E 135°01'  
2017-Nov-09 08:44N 34°37' E 135°01'2 8.7
2017-Nov-09 08:29N 34°36' E 135°04'4 9.3
2017-Nov-09 08:00N 34°32' E 135°04'1611.1
2017-Nov-09 06:34N 34°16' E 134°60'211.5
2017-Nov-09 06:25N 34°15' E 135°00'511.4
2017-Nov-09 06:00N 34°10' E 135°01'  

Dump ship's entire track history